Etusivu
METAR-TAF:

METAR-TAF

Lentoasemat :

Amman, Jordania

Leveyspiiri: 31-59N, Pituuspiiri: 035-59E, korkeus merenpinnasta: 767 m

Tämänhetkinen sää

Tämä raportti tehtiin 53 minuuttia sitten, kello 16.00 UTC
Tuuli 12 kn luoteesta
Lämpötila 27°C
Kosteus 48%
Ilmanpaine 1014 hPa
Näkyvyys: 6000 m
Muutamia pilviä 3000 ft:n korkeudessa

METAR: OJAM 201600Z 31012KT 6000 FEW030 27/15 Q1014 NOSIG

Aika: 19:53 (16:53 UTC)

Sääennuste

Tämä raportti tehtiin 6 tuntia ja 34 minuuttia sitten, kello 10.19 UTC
Ennuste voimassa 20. päivästä klo 12 UTC - 21. päivään klo 18 UTC
Tuuli 10 kn lännestä/luoteesta
Näkyvyys: 6000 m
Muutamia pilviä 3000 ft:n korkeudessa
Ajoittain
20. päivästä klo 12 UTC - 20. päivään klo 15 UTC
Näkyvyys: 5000 m
usvaa
Todennäköisyys 30%
21. päivästä klo 02 UTC - 21. päivään klo 06 UTC
Tuuli 1 kn eri suunnista
Näkyvyys: 4000 m
usvaa

TAF: OJAM 201019Z 2012/2118 29010KT 6000 FEW030 TEMPO 2012/2015 5000 HZ PROB30 2102/2106 VRB01KT 4000 HZ

Säähavainnot ja -ennusteet yli 4000 lentoasemalta (METAR- ja TAF-raportit).

Käytössä olevat sääasemat on merkitty karttaan keltaisilla ja punaisilla pisteillä.

Aseta hiiri pisteen päälle nähdäksesi sääaseman nimen.

Klikkaa sitten nähdäksesi säähavainnot ja -ennusteet.

Kartan vaihtaminen: klikkaa mustalla rastilla varustettuja vihreitä pisteitä, niin voit zoomata sisään; viivalla varustettua vihreää pistettä, niin voit zoomata ulos tai vihreitä nuolia, niin pääset viereisille kartoille.


METAR-TAF: